createdAt,value
2019-04-22T00:00:50.125Z,8.70
2019-04-22T00:03:45.310Z,9.70
2019-04-22T00:15:36.749Z,11.77
2019-04-22T00:18:42.873Z,8.93
2019-04-22T00:21:26.329Z,8.03
2019-04-22T00:24:18.687Z,12.03
2019-04-22T00:27:11.937Z,9.53
2019-04-22T00:30:07.923Z,10.03
2019-04-22T00:33:03.215Z,10.23
2019-04-22T00:39:07.491Z,10.00
2019-04-22T00:41:56.967Z,9.30
2019-04-22T00:44:46.657Z,8.00
2019-04-22T00:47:38.202Z,10.37
2019-04-22T00:56:31.122Z,13.00
2019-04-22T00:59:21.994Z,10.60
2019-04-22T01:02:13.080Z,10.23
2019-04-22T01:05:04.132Z,19.67
2019-04-22T01:07:49.894Z,7.60
2019-04-22T01:10:45.229Z,8.45
2019-04-22T01:13:30.479Z,9.20
2019-04-22T01:16:17.515Z,10.17
2019-04-22T01:19:06.556Z,10.23
2019-04-22T01:22:13.121Z,10.57
2019-04-22T01:24:46.714Z,13.00
2019-04-22T01:27:30.975Z,10.33
2019-04-22T01:33:40.216Z,9.93
2019-04-22T01:36:42.747Z,9.70
2019-04-22T01:39:43.630Z,10.60
2019-04-22T01:42:35.742Z,11.03
2019-04-22T01:45:19.265Z,9.13
2019-04-22T01:48:16.144Z,9.40
2019-04-22T01:50:54.774Z,9.57
2019-04-22T01:53:57.694Z,12.73
2019-04-22T01:56:47.317Z,12.70
2019-04-22T02:02:31.719Z,8.57
2019-04-22T02:05:17.662Z,8.10
2019-04-22T02:08:18.056Z,8.10
2019-04-22T02:11:04.231Z,10.37
2019-04-22T02:13:43.082Z,11.30
2019-04-22T02:16:39.040Z,12.77
2019-04-22T02:19:30.709Z,12.10
2019-04-22T02:22:17.639Z,11.50
2019-04-22T02:25:13.477Z,12.60
2019-04-22T02:27:54.673Z,11.47
2019-04-22T02:31:15.986Z,11.07
2019-04-22T02:34:01.697Z,10.00
2019-04-22T02:36:36.329Z,10.10
2019-04-22T02:39:17.469Z,10.32
2019-04-22T02:42:14.441Z,12.70
2019-04-22T02:44:58.077Z,17.60
2019-04-22T02:47:59.124Z,10.90
2019-04-22T02:57:12.160Z,11.30
2019-04-22T03:06:07.684Z,10.40
2019-04-22T03:08:51.220Z,11.20
2019-04-22T03:14:22.295Z,9.63
2019-04-22T03:17:08.634Z,11.03
2019-04-22T03:20:09.234Z,12.43
2019-04-22T03:23:00.144Z,11.53
2019-04-22T03:28:41.143Z,11.07
2019-04-22T03:32:25.229Z,10.10
2019-04-22T03:40:19.579Z,8.40
2019-04-22T03:45:46.431Z,13.40
2019-04-22T03:49:07.062Z,11.30
2019-04-22T04:03:04.983Z,10.93
2019-04-22T04:05:54.236Z,9.23
2019-04-22T04:11:49.576Z,9.97
2019-04-22T04:14:33.427Z,8.27
2019-04-22T04:23:05.718Z,10.90
2019-04-22T04:25:57.258Z,9.90
2019-04-22T04:37:42.254Z,11.10
2019-04-22T04:42:58.335Z,8.90
2019-04-22T04:48:55.467Z,11.73
2019-04-22T04:51:49.605Z,10.33
2019-04-22T05:00:32.038Z,8.77
2019-04-22T05:05:54.788Z,9.83
2019-04-22T05:11:35.331Z,9.70
2019-04-22T05:23:16.504Z,13.23
2019-04-22T05:32:31.244Z,11.20
2019-04-22T05:35:20.606Z,11.13
2019-04-22T05:38:09.814Z,9.97
2019-04-22T05:41:00.532Z,11.20
2019-04-22T05:43:51.693Z,10.63
2019-04-22T05:46:45.953Z,15.20
2019-04-22T05:49:28.843Z,10.73
2019-04-22T05:52:22.346Z,12.57
2019-04-22T05:55:14.420Z,12.20
2019-04-22T05:58:02.809Z,11.93
2019-04-22T06:04:05.890Z,10.83
2019-04-22T06:06:54.234Z,11.20
2019-04-22T06:09:38.847Z,13.97
2019-04-22T06:15:44.106Z,11.40
2019-04-22T06:18:36.736Z,11.30
2019-04-22T06:21:28.206Z,10.60
2019-04-22T06:24:16.742Z,12.43
2019-04-22T06:27:15.880Z,11.13
2019-04-22T06:29:53.661Z,10.57
2019-04-22T06:32:47.209Z,9.80
2019-04-22T06:35:45.665Z,10.23
2019-04-22T06:38:43.127Z,9.57
2019-04-22T06:41:21.203Z,9.80
2019-04-22T06:44:10.836Z,10.00
2019-04-22T06:50:16.614Z,10.97
2019-04-22T06:53:04.481Z,10.30
2019-04-22T06:55:51.300Z,11.90
2019-04-22T06:58:46.054Z,7.93
2019-04-22T07:01:35.839Z,9.97
2019-04-22T07:04:45.008Z,8.70
2019-04-22T07:07:31.509Z,8.50
2019-04-22T07:10:39.844Z,6.33
2019-04-22T07:13:16.292Z,9.23
2019-04-22T07:16:05.299Z,10.90
2019-04-22T07:18:51.391Z,10.83
2019-04-22T07:21:44.276Z,9.37
2019-04-22T07:24:46.366Z,7.23
2019-04-22T07:27:25.719Z,6.57
2019-04-22T07:30:16.972Z,9.63
2019-04-22T07:36:12.310Z,9.20
2019-04-22T07:38:36.152Z,9.80
2019-04-22T07:41:31.760Z,6.70
2019-04-22T07:44:30.864Z,5.60
2019-04-22T07:47:18.802Z,6.17
2019-04-22T07:50:05.141Z,8.40
2019-04-22T07:52:51.981Z,6.53
2019-04-22T07:55:45.653Z,6.13
2019-04-22T07:58:36.119Z,4.90
2019-04-22T08:01:26.646Z,5.30
2019-04-22T08:04:24.389Z,6.15
2019-04-22T08:07:12.915Z,5.37
2019-04-22T08:10:09.152Z,6.07
2019-04-22T08:12:55.814Z,5.73
2019-04-22T08:18:28.361Z,7.83
2019-04-22T08:21:12.287Z,7.40
2019-04-22T08:24:06.373Z,6.83
2019-04-22T08:27:00.936Z,6.30
2019-04-22T08:29:55.204Z,5.40
2019-04-22T08:32:44.138Z,5.30
2019-04-22T08:35:50.215Z,6.40
2019-04-22T08:38:17.135Z,5.70
2019-04-22T08:41:33.465Z,5.73
2019-04-22T08:44:39.097Z,4.77
2019-04-22T08:50:07.721Z,6.53
2019-04-22T08:52:57.674Z,6.33
2019-04-22T09:02:06.399Z,7.33
2019-04-22T09:04:49.324Z,11.20
2019-04-22T09:08:01.471Z,6.80
2019-04-22T09:10:58.437Z,4.80
2019-04-22T09:13:52.134Z,6.57
2019-04-22T09:16:37.699Z,8.00
2019-04-22T09:19:19.672Z,6.30
2019-04-22T09:24:58.570Z,14.07
2019-04-22T09:27:52.581Z,7.90
2019-04-22T09:34:08.225Z,4.70
2019-04-22T09:37:06.235Z,7.00
2019-04-22T09:39:59.654Z,9.13
2019-04-22T09:42:45.498Z,6.67
2019-04-22T09:45:52.969Z,6.77
2019-04-22T09:48:43.443Z,6.20
2019-04-22T09:51:30.899Z,6.90
2019-04-22T09:54:31.631Z,9.27
2019-04-22T09:57:15.802Z,7.90
2019-04-22T10:05:52.479Z,5.97
2019-04-22T10:08:50.878Z,6.70
2019-04-22T10:14:19.321Z,6.70
2019-04-22T10:17:07.839Z,12.40
2019-04-22T10:19:46.851Z,5.67
2019-04-22T10:25:53.703Z,8.73
2019-04-22T10:28:44.441Z,8.20
2019-04-22T10:31:37.106Z,8.10
2019-04-22T10:34:11.759Z,6.27
2019-04-22T10:36:53.122Z,6.30
2019-04-22T10:42:57.135Z,6.70
2019-04-22T10:45:46.209Z,9.30
2019-04-22T10:48:36.697Z,8.77
2019-04-22T10:51:26.904Z,9.30
2019-04-22T10:54:15.814Z,7.73
2019-04-22T10:57:04.611Z,9.10
2019-04-22T10:59:54.430Z,6.70
2019-04-22T11:02:45.714Z,7.57
2019-04-22T11:05:35.418Z,8.43
2019-04-22T11:08:32.588Z,9.10
2019-04-22T11:11:26.310Z,7.83
2019-04-22T11:13:58.082Z,6.50
2019-04-22T11:16:47.658Z,8.33
2019-04-22T11:19:37.416Z,9.43
2019-04-22T11:22:30.012Z,7.67
2019-04-22T11:25:17.752Z,8.03
2019-04-22T11:28:07.590Z,6.73
2019-04-22T11:30:58.668Z,8.30
2019-04-22T11:33:48.533Z,7.60
2019-04-22T11:36:39.002Z,5.60
2019-04-22T11:39:34.133Z,9.27
2019-04-22T11:42:20.546Z,5.90
2019-04-22T11:45:11.047Z,9.70
2019-04-22T11:48:01.569Z,8.63
2019-04-22T11:50:51.887Z,6.67
2019-04-22T11:53:40.974Z,7.30
2019-04-22T11:56:31.354Z,6.10
2019-04-22T11:59:22.640Z,13.07
2019-04-22T12:08:24.933Z,6.87
2019-04-22T12:14:16.012Z,5.87
2019-04-22T12:20:14.524Z,6.23
2019-04-22T12:23:05.077Z,6.47
2019-04-22T12:26:02.088Z,6.13
2019-04-22T12:28:45.093Z,6.70
2019-04-22T12:31:33.868Z,5.77
2019-04-22T12:34:23.691Z,8.37
2019-04-22T12:40:32.747Z,5.13
2019-04-22T12:43:12.815Z,5.10
2019-04-22T12:46:02.423Z,6.20
2019-04-22T12:48:53.876Z,8.73
2019-04-22T12:51:43.099Z,7.03
2019-04-22T12:54:33.077Z,14.50
2019-04-22T12:57:22.840Z,8.83
2019-04-22T13:03:42.613Z,5.17
2019-04-22T13:06:32.165Z,4.90
2019-04-22T13:09:21.221Z,4.80
2019-04-22T13:12:13.042Z,4.40
2019-04-22T13:15:04.737Z,6.07
2019-04-22T13:17:46.272Z,6.10
2019-04-22T13:23:42.856Z,5.90
2019-04-22T13:26:32.017Z,7.00
2019-04-22T13:29:23.223Z,7.20
2019-04-22T13:32:13.165Z,4.90
2019-04-22T13:35:03.979Z,4.87
2019-04-22T13:37:54.977Z,4.87
2019-04-22T13:40:59.213Z,7.80
2019-04-22T13:43:34.946Z,6.07
2019-04-22T13:46:24.078Z,4.97
2019-04-22T13:55:30.666Z,5.77
2019-04-22T14:00:40.691Z,5.00
2019-04-22T14:03:49.230Z,4.90
2019-04-22T14:06:38.823Z,5.20
2019-04-22T14:09:28.506Z,5.27
2019-04-22T14:12:13.399Z,5.00
2019-04-22T14:15:00.346Z,7.90
2019-04-22T14:17:49.277Z,5.40
2019-04-22T14:20:38.691Z,5.57
2019-04-22T14:23:28.743Z,5.40
2019-04-22T14:26:19.665Z,5.97
2019-04-22T14:29:09.519Z,6.23
2019-04-22T14:32:05.468Z,4.87
2019-04-22T14:34:49.165Z,5.00
2019-04-22T14:37:40.305Z,4.93
2019-04-22T14:40:30.396Z,7.07
2019-04-22T14:43:50.111Z,5.60
2019-04-22T14:49:23.923Z,5.80
2019-04-22T14:52:15.254Z,4.50
2019-04-22T14:54:54.447Z,6.50
2019-04-22T14:57:34.333Z,6.30
2019-04-22T15:03:19.794Z,5.00
2019-04-22T15:06:08.568Z,4.70
2019-04-22T15:08:59.369Z,4.23
2019-04-22T15:11:52.865Z,6.17
2019-04-22T15:14:31.463Z,10.20
2019-04-22T15:17:40.824Z,6.67
2019-04-22T15:20:52.204Z,4.67
2019-04-22T15:23:40.452Z,7.57
2019-04-22T15:26:30.659Z,4.97
2019-04-22T15:29:21.130Z,5.87
2019-04-22T15:32:11.718Z,5.50
2019-04-22T15:35:01.956Z,7.83
2019-04-22T15:37:53.014Z,5.60
2019-04-22T15:43:59.631Z,4.77
2019-04-22T15:46:48.979Z,7.50
2019-04-22T15:49:40.236Z,5.77
2019-04-22T15:52:42.009Z,5.50
2019-04-22T15:55:23.049Z,6.80
2019-04-22T15:58:12.076Z,6.70
2019-04-22T16:01:10.901Z,6.40
2019-04-22T16:03:52.878Z,5.57
2019-04-22T16:06:43.042Z,3.80
2019-04-22T16:09:33.238Z,4.17
2019-04-22T16:12:22.395Z,5.20
2019-04-22T16:15:26.937Z,3.40
2019-04-22T16:18:15.707Z,4.37
2019-04-22T16:21:04.911Z,5.10
2019-04-22T16:24:14.224Z,5.23
2019-04-22T16:29:59.276Z,4.50
2019-04-22T16:36:18.627Z,5.97
2019-04-22T16:39:29.137Z,7.20
2019-04-22T16:42:27.832Z,5.57
2019-04-22T16:45:09.450Z,6.70
2019-04-22T16:48:00.037Z,5.00
2019-04-22T16:50:51.178Z,5.03
2019-04-22T16:53:41.164Z,5.90
2019-04-22T16:56:33.926Z,5.57
2019-04-22T16:59:22.402Z,4.13
2019-04-22T17:02:30.854Z,3.90
2019-04-22T17:08:29.037Z,4.93
2019-04-22T17:11:17.981Z,4.23
2019-04-22T17:14:01.451Z,4.57
2019-04-22T17:16:50.601Z,5.60
2019-04-22T17:19:41.674Z,4.83
2019-04-22T17:22:31.460Z,5.17
2019-04-22T17:25:22.494Z,4.83
2019-04-22T17:28:13.269Z,5.80
2019-04-22T17:31:02.832Z,6.00
2019-04-22T17:33:52.905Z,5.20
2019-04-22T17:36:42.409Z,5.00
2019-04-22T17:39:46.400Z,3.37
2019-04-22T17:42:42.246Z,4.90
2019-04-22T17:45:58.433Z,6.23
2019-04-22T17:49:04.422Z,6.90
2019-04-22T17:52:17.387Z,5.27
2019-04-22T17:54:56.235Z,5.83
2019-04-22T17:57:52.670Z,9.43
2019-04-22T18:00:36.569Z,5.50
2019-04-22T18:03:24.440Z,5.23
2019-04-22T18:06:14.171Z,6.17
2019-04-22T18:09:19.337Z,3.90
2019-04-22T18:12:11.805Z,4.80
2019-04-22T18:14:57.368Z,5.23
2019-04-22T18:18:00.729Z,5.60
2019-04-22T18:20:28.123Z,7.60
2019-04-22T18:23:09.667Z,3.87
2019-04-22T18:26:14.828Z,3.47
2019-04-22T18:29:02.163Z,4.40
2019-04-22T18:31:44.157Z,2.53
2019-04-22T18:34:37.240Z,4.67
2019-04-22T18:37:31.398Z,3.90
2019-04-22T18:40:44.792Z,3.90
2019-04-22T18:43:42.455Z,3.00
2019-04-22T18:46:30.132Z,5.70
2019-04-22T18:49:16.555Z,3.60
2019-04-22T18:52:29.589Z,5.50
2019-04-22T18:55:30.941Z,6.27
2019-04-22T18:58:22.742Z,4.97
2019-04-22T19:00:57.738Z,4.77
2019-04-22T19:03:58.090Z,7.07
2019-04-22T19:07:18.983Z,9.13
2019-04-22T19:09:56.238Z,4.50
2019-04-22T19:13:00.395Z,6.50
2019-04-22T19:15:33.075Z,8.50
2019-04-22T19:18:24.568Z,4.87
2019-04-22T19:21:13.214Z,4.63
2019-04-22T19:23:54.484Z,4.87
2019-04-22T19:29:40.212Z,6.07
2019-04-22T19:32:35.639Z,5.03
2019-04-22T19:35:20.917Z,5.00
2019-04-22T19:38:02.435Z,4.67
2019-04-22T19:41:08.661Z,5.50
2019-04-22T19:43:49.110Z,6.37
2019-04-22T19:46:46.437Z,4.63
2019-04-22T19:49:38.501Z,6.00
2019-04-22T19:52:24.095Z,8.23
2019-04-22T19:54:54.973Z,4.77
2019-04-22T19:57:43.422Z,7.17
2019-04-22T20:00:28.806Z,4.20
2019-04-22T20:03:53.032Z,6.30
2019-04-22T20:06:33.924Z,4.20
2019-04-22T20:12:37.553Z,6.07
2019-04-22T20:15:18.430Z,8.97
2019-04-22T20:21:07.058Z,6.23
2019-04-22T20:23:45.417Z,4.60
2019-04-22T20:26:50.018Z,4.20
2019-04-22T20:29:38.381Z,3.47
2019-04-22T20:32:26.547Z,6.03
2019-04-22T20:35:22.703Z,4.67
2019-04-22T20:38:08.794Z,3.83
2019-04-22T20:40:55.300Z,4.97
2019-04-22T20:43:52.674Z,7.37
2019-04-22T20:46:39.618Z,7.10
2019-04-22T20:49:31.756Z,4.27
2019-04-22T20:52:26.386Z,5.57
2019-04-22T20:55:08.228Z,6.40
2019-04-22T20:57:59.012Z,8.63
2019-04-22T21:00:45.317Z,7.00
2019-04-22T21:03:33.289Z,4.90
2019-04-22T21:06:32.306Z,5.47
2019-04-22T21:09:25.402Z,5.00
2019-04-22T21:11:56.689Z,6.30
2019-04-22T21:15:00.180Z,15.47
2019-04-22T21:17:44.828Z,4.30
2019-04-22T21:20:36.788Z,5.70
2019-04-22T21:23:23.150Z,8.83
2019-04-22T21:26:13.856Z,3.20
2019-04-22T21:29:04.409Z,8.50
2019-04-22T21:31:54.861Z,4.80
2019-04-22T21:34:55.483Z,8.60
2019-04-22T21:37:43.163Z,7.60
2019-04-22T21:40:32.304Z,2.80
2019-04-22T21:43:27.011Z,6.20
2019-04-22T21:46:15.086Z,5.53
2019-04-22T21:49:05.795Z,8.30
2019-04-22T21:51:54.041Z,4.33
2019-04-22T21:54:47.046Z,6.73
2019-04-22T21:57:50.203Z,6.90
2019-04-22T22:00:31.086Z,6.90
2019-04-22T22:03:17.775Z,7.30
2019-04-22T22:05:53.033Z,5.50
2019-04-22T22:08:54.791Z,3.80
2019-04-22T22:11:41.751Z,4.80
2019-04-22T22:14:31.761Z,4.80
2019-04-22T22:17:22.326Z,8.07
2019-04-22T22:20:12.757Z,5.60
2019-04-22T22:23:20.460Z,8.00
2019-04-22T22:25:53.497Z,4.70
2019-04-22T22:29:06.893Z,6.33
2019-04-22T22:31:40.070Z,4.70
2019-04-22T22:34:43.528Z,4.30
2019-04-22T22:37:11.306Z,4.87
2019-04-22T22:39:55.599Z,4.60
2019-04-22T22:42:43.733Z,4.80
2019-04-22T22:45:37.413Z,7.10
2019-04-22T22:48:43.292Z,4.50
2019-04-22T22:51:39.605Z,3.67
2019-04-22T22:54:25.100Z,3.57
2019-04-22T22:57:21.111Z,9.93
2019-04-22T22:59:57.490Z,4.87
2019-04-22T23:03:02.257Z,4.87
2019-04-22T23:05:43.612Z,4.30
2019-04-22T23:08:44.720Z,5.30
2019-04-22T23:11:25.941Z,3.80
2019-04-22T23:14:07.807Z,5.07
2019-04-22T23:16:46.753Z,4.20
2019-04-22T23:19:28.092Z,5.10
2019-04-22T23:22:30.236Z,5.20
2019-04-22T23:25:53.651Z,5.70
2019-04-22T23:28:49.958Z,5.07
2019-04-22T23:34:44.500Z,10.17
2019-04-22T23:40:42.506Z,5.80
2019-04-22T23:43:38.696Z,4.27
2019-04-22T23:46:29.022Z,4.80
2019-04-22T23:49:11.830Z,4.70
2019-04-22T23:52:14.722Z,6.27
2019-04-22T23:58:07.967Z,5.03
